sensor_id;sensor_type;location;lat;lon;timestamp;P1;durP1;ratioP1;P2;durP2;ratioP2
15104;SDS011;7653;48.994;9.212;2023-06-10T00:02:20;4.57;;;4.10;;
15104;SDS011;7653;48.994;9.212;2023-06-10T00:04:46;4.40;;;4.00;;
15104;SDS011;7653;48.994;9.212;2023-06-10T00:07:12;4.87;;;4.10;;
15104;SDS011;7653;48.994;9.212;2023-06-10T00:09:38;4.50;;;3.53;;
15104;SDS011;7653;48.994;9.212;2023-06-10T00:12:07;4.67;;;4.27;;
15104;SDS011;7653;48.994;9.212;2023-06-10T00:14:36;4.33;;;3.93;;
15104;SDS011;7653;48.994;9.212;2023-06-10T00:17:03;4.60;;;4.13;;
15104;SDS011;7653;48.994;9.212;2023-06-10T00:19:30;4.50;;;4.00;;
15104;SDS011;7653;48.994;9.212;2023-06-10T00:21:57;5.07;;;4.57;;
15104;SDS011;7653;48.994;9.212;2023-06-10T00:24:22;6.30;;;4.40;;
15104;SDS011;7653;48.994;9.212;2023-06-10T00:26:48;4.47;;;4.07;;
15104;SDS011;7653;48.994;9.212;2023-06-10T00:29:14;4.17;;;3.80;;
15104;SDS011;7653;48.994;9.212;2023-06-10T00:31:40;4.73;;;4.20;;
15104;SDS011;7653;48.994;9.212;2023-06-10T00:34:06;5.13;;;4.73;;
15104;SDS011;7653;48.994;9.212;2023-06-10T00:36:32;4.40;;;4.10;;
15104;SDS011;7653;48.994;9.212;2023-06-10T00:38:58;4.67;;;4.13;;
15104;SDS011;7653;48.994;9.212;2023-06-10T00:41:24;4.30;;;3.90;;
15104;SDS011;7653;48.994;9.212;2023-06-10T00:43:53;4.70;;;4.00;;
15104;SDS011;7653;48.994;9.212;2023-06-10T00:46:19;4.70;;;4.30;;
15104;SDS011;7653;48.994;9.212;2023-06-10T00:48:46;6.63;;;4.70;;
15104;SDS011;7653;48.994;9.212;2023-06-10T00:51:11;5.07;;;4.30;;
15104;SDS011;7653;48.994;9.212;2023-06-10T00:53:39;4.43;;;4.00;;
15104;SDS011;7653;48.994;9.212;2023-06-10T00:56:06;6.30;;;4.60;;
15104;SDS011;7653;48.994;9.212;2023-06-10T00:58:32;5.10;;;4.60;;
15104;SDS011;7653;48.994;9.212;2023-06-10T01:00:58;5.07;;;4.57;;
15104;SDS011;7653;48.994;9.212;2023-06-10T01:03:24;4.90;;;4.50;;
15104;SDS011;7653;48.994;9.212;2023-06-10T01:05:52;4.60;;;4.20;;
15104;SDS011;7653;48.994;9.212;2023-06-10T01:11:13;4.57;;;4.17;;
15104;SDS011;7653;48.994;9.212;2023-06-10T01:13:45;4.57;;;4.17;;
15104;SDS011;7653;48.994;9.212;2023-06-10T01:16:16;4.70;;;4.30;;
15104;SDS011;7653;48.994;9.212;2023-06-10T01:18:43;5.37;;;4.43;;
15104;SDS011;7653;48.994;9.212;2023-06-10T01:21:12;4.80;;;4.40;;
15104;SDS011;7653;48.994;9.212;2023-06-10T01:23:38;4.63;;;4.23;;
15104;SDS011;7653;48.994;9.212;2023-06-10T01:26:06;6.07;;;4.57;;
15104;SDS011;7653;48.994;9.212;2023-06-10T01:34:01;5.30;;;4.40;;
15104;SDS011;7653;48.994;9.212;2023-06-10T01:36:32;4.97;;;4.47;;
15104;SDS011;7653;48.994;9.212;2023-06-10T01:39:00;4.70;;;4.30;;
15104;SDS011;7653;48.994;9.212;2023-06-10T01:41:27;5.00;;;4.60;;
15104;SDS011;7653;48.994;9.212;2023-06-10T01:43:54;4.60;;;4.20;;
15104;SDS011;7653;48.994;9.212;2023-06-10T01:46:20;5.00;;;4.47;;
15104;SDS011;7653;48.994;9.212;2023-06-10T01:48:46;6.07;;;5.47;;
15104;SDS011;7653;48.994;9.212;2023-06-10T01:51:12;4.63;;;4.27;;
15104;SDS011;7653;48.994;9.212;2023-06-10T01:53:37;5.67;;;5.17;;
15104;SDS011;7653;48.994;9.212;2023-06-10T01:56:03;5.67;;;5.17;;
15104;SDS011;7653;48.994;9.212;2023-06-10T01:58:29;5.27;;;4.50;;
15104;SDS011;7653;48.994;9.212;2023-06-10T02:00:55;5.10;;;4.60;;
15104;SDS011;7653;48.994;9.212;2023-06-10T02:03:21;5.80;;;5.20;;
15104;SDS011;7653;48.994;9.212;2023-06-10T02:05:46;6.07;;;5.47;;
15104;SDS011;7653;48.994;9.212;2023-06-10T02:08:12;6.00;;;5.40;;
15104;SDS011;7653;48.994;9.212;2023-06-10T02:10:38;5.30;;;4.80;;
15104;SDS011;7653;48.994;9.212;2023-06-10T02:13:03;5.60;;;5.10;;
15104;SDS011;7653;48.994;9.212;2023-06-10T02:15:29;5.30;;;4.80;;
15104;SDS011;7653;48.994;9.212;2023-06-10T02:17:55;5.10;;;4.63;;
15104;SDS011;7653;48.994;9.212;2023-06-10T02:20:21;7.20;;;5.60;;
15104;SDS011;7653;48.994;9.212;2023-06-10T02:22:47;7.03;;;5.10;;
15104;SDS011;7653;48.994;9.212;2023-06-10T02:25:12;5.47;;;4.97;;
15104;SDS011;7653;48.994;9.212;2023-06-10T02:27:38;5.50;;;5.00;;
15104;SDS011;7653;48.994;9.212;2023-06-10T02:30:04;5.60;;;4.97;;
15104;SDS011;7653;48.994;9.212;2023-06-10T02:32:30;5.57;;;5.07;;
15104;SDS011;7653;48.994;9.212;2023-06-10T02:34:56;5.97;;;4.80;;
15104;SDS011;7653;48.994;9.212;2023-06-10T02:37:22;5.07;;;4.57;;
15104;SDS011;7653;48.994;9.212;2023-06-10T02:39:48;6.40;;;5.80;;
15104;SDS011;7653;48.994;9.212;2023-06-10T02:42:13;6.13;;;5.00;;
15104;SDS011;7653;48.994;9.212;2023-06-10T02:44:39;5.27;;;4.80;;
15104;SDS011;7653;48.994;9.212;2023-06-10T02:47:05;6.63;;;6.13;;
15104;SDS011;7653;48.994;9.212;2023-06-10T02:49:30;6.63;;;5.53;;
15104;SDS011;7653;48.994;9.212;2023-06-10T02:51:56;7.30;;;6.60;;
15104;SDS011;7653;48.994;9.212;2023-06-10T02:54:22;6.73;;;6.13;;
15104;SDS011;7653;48.994;9.212;2023-06-10T02:56:48;9.60;;;6.30;;
15104;SDS011;7653;48.994;9.212;2023-06-10T02:59:14;7.03;;;6.33;;
15104;SDS011;7653;48.994;9.212;2023-06-10T03:01:40;7.27;;;6.57;;
15104;SDS011;7653;48.994;9.212;2023-06-10T03:04:07;8.13;;;7.37;;
15104;SDS011;7653;48.994;9.212;2023-06-10T03:06:32;7.33;;;6.63;;
15104;SDS011;7653;48.994;9.212;2023-06-10T03:09:02;7.67;;;6.87;;
15104;SDS011;7653;48.994;9.212;2023-06-10T03:11:29;7.57;;;6.83;;
15104;SDS011;7653;48.994;9.212;2023-06-10T03:13:56;7.90;;;7.07;;
15104;SDS011;7653;48.994;9.212;2023-06-10T03:16:22;8.10;;;7.30;;
15104;SDS011;7653;48.994;9.212;2023-06-10T03:18:50;7.83;;;7.03;;
15104;SDS011;7653;48.994;9.212;2023-06-10T03:21:15;7.90;;;7.10;;
15104;SDS011;7653;48.994;9.212;2023-06-10T03:23:41;7.20;;;6.50;;
15104;SDS011;7653;48.994;9.212;2023-06-10T03:26:07;7.67;;;6.87;;
15104;SDS011;7653;48.994;9.212;2023-06-10T03:28:33;7.67;;;6.97;;
15104;SDS011;7653;48.994;9.212;2023-06-10T03:30:58;8.73;;;7.93;;
15104;SDS011;7653;48.994;9.212;2023-06-10T03:33:24;9.87;;;7.37;;
15104;SDS011;7653;48.994;9.212;2023-06-10T03:35:51;8.77;;;7.37;;
15104;SDS011;7653;48.994;9.212;2023-06-10T03:38:16;7.57;;;6.87;;
15104;SDS011;7653;48.994;9.212;2023-06-10T03:40:42;7.70;;;6.90;;
15104;SDS011;7653;48.994;9.212;2023-06-10T03:43:08;9.00;;;7.07;;
15104;SDS011;7653;48.994;9.212;2023-06-10T03:45:33;9.33;;;7.83;;
15104;SDS011;7653;48.994;9.212;2023-06-10T03:47:59;8.20;;;7.40;;
15104;SDS011;7653;48.994;9.212;2023-06-10T03:50:26;8.13;;;6.43;;
15104;SDS011;7653;48.994;9.212;2023-06-10T03:52:51;8.10;;;7.17;;
15104;SDS011;7653;48.994;9.212;2023-06-10T03:55:17;7.80;;;7.10;;
15104;SDS011;7653;48.994;9.212;2023-06-10T03:57:43;8.27;;;7.43;;
15104;SDS011;7653;48.994;9.212;2023-06-10T04:00:09;8.80;;;7.70;;
15104;SDS011;7653;48.994;9.212;2023-06-10T04:02:38;8.87;;;7.70;;
15104;SDS011;7653;48.994;9.212;2023-06-10T04:05:14;8.60;;;7.63;;
15104;SDS011;7653;48.994;9.212;2023-06-10T04:07:41;8.60;;;7.70;;
15104;SDS011;7653;48.994;9.212;2023-06-10T04:10:08;8.47;;;7.27;;
15104;SDS011;7653;48.994;9.212;2023-06-10T04:12:34;8.17;;;7.37;;
15104;SDS011;7653;48.994;9.212;2023-06-10T04:15:00;8.70;;;7.80;;
15104;SDS011;7653;48.994;9.212;2023-06-10T04:17:27;7.87;;;7.10;;
15104;SDS011;7653;48.994;9.212;2023-06-10T04:19:52;9.07;;;7.30;;
15104;SDS011;7653;48.994;9.212;2023-06-10T04:22:19;8.67;;;7.87;;
15104;SDS011;7653;48.994;9.212;2023-06-10T04:24:45;8.40;;;7.50;;
15104;SDS011;7653;48.994;9.212;2023-06-10T04:27:11;6.70;;;6.10;;
15104;SDS011;7653;48.994;9.212;2023-06-10T04:29:37;9.03;;;6.83;;
15104;SDS011;7653;48.994;9.212;2023-06-10T04:32:03;8.10;;;7.13;;
15104;SDS011;7653;48.994;9.212;2023-06-10T04:34:30;7.57;;;6.83;;
15104;SDS011;7653;48.994;9.212;2023-06-10T04:36:56;7.87;;;7.13;;
15104;SDS011;7653;48.994;9.212;2023-06-10T04:39:22;7.90;;;6.97;;
15104;SDS011;7653;48.994;9.212;2023-06-10T04:41:48;7.20;;;6.50;;
15104;SDS011;7653;48.994;9.212;2023-06-10T04:44:13;7.17;;;6.47;;
15104;SDS011;7653;48.994;9.212;2023-06-10T04:46:39;7.27;;;6.60;;
15104;SDS011;7653;48.994;9.212;2023-06-10T04:49:04;7.77;;;6.63;;
15104;SDS011;7653;48.994;9.212;2023-06-10T04:51:30;7.57;;;6.40;;
15104;SDS011;7653;48.994;9.212;2023-06-10T04:53:59;7.87;;;7.13;;
15104;SDS011;7653;48.994;9.212;2023-06-10T04:56:28;7.63;;;6.93;;
15104;SDS011;7653;48.994;9.212;2023-06-10T04:58:55;8.33;;;6.60;;
15104;SDS011;7653;48.994;9.212;2023-06-10T05:01:21;7.60;;;6.00;;
15104;SDS011;7653;48.994;9.212;2023-06-10T05:03:47;6.90;;;6.20;;
15104;SDS011;7653;48.994;9.212;2023-06-10T05:06:12;8.10;;;7.30;;
15104;SDS011;7653;48.994;9.212;2023-06-10T05:08:38;7.70;;;6.90;;
15104;SDS011;7653;48.994;9.212;2023-06-10T05:11:03;8.40;;;7.60;;
15104;SDS011;7653;48.994;9.212;2023-06-10T05:13:29;8.47;;;7.17;;
15104;SDS011;7653;48.994;9.212;2023-06-10T05:15:55;8.57;;;7.73;;
15104;SDS011;7653;48.994;9.212;2023-06-10T05:18:20;7.50;;;6.80;;
15104;SDS011;7653;48.994;9.212;2023-06-10T05:20:46;8.67;;;7.77;;
15104;SDS011;7653;48.994;9.212;2023-06-10T05:23:12;8.83;;;7.93;;
15104;SDS011;7653;48.994;9.212;2023-06-10T05:25:37;8.30;;;7.60;;
15104;SDS011;7653;48.994;9.212;2023-06-10T05:28:03;8.70;;;7.43;;
15104;SDS011;7653;48.994;9.212;2023-06-10T05:30:29;8.00;;;7.20;;
15104;SDS011;7653;48.994;9.212;2023-06-10T05:32:54;9.20;;;8.27;;
15104;SDS011;7653;48.994;9.212;2023-06-10T05:35:21;8.20;;;7.27;;
15104;SDS011;7653;48.994;9.212;2023-06-10T05:37:47;8.33;;;7.43;;
15104;SDS011;7653;48.994;9.212;2023-06-10T05:40:12;7.83;;;6.70;;
15104;SDS011;7653;48.994;9.212;2023-06-10T05:42:38;7.37;;;6.63;;
15104;SDS011;7653;48.994;9.212;2023-06-10T05:45:05;8.23;;;6.97;;
15104;SDS011;7653;48.994;9.212;2023-06-10T05:47:31;7.20;;;6.50;;
15104;SDS011;7653;48.994;9.212;2023-06-10T05:49:57;8.07;;;6.77;;
15104;SDS011;7653;48.994;9.212;2023-06-10T05:52:23;7.73;;;6.93;;
15104;SDS011;7653;48.994;9.212;2023-06-10T05:54:49;7.87;;;6.97;;
15104;SDS011;7653;48.994;9.212;2023-06-10T05:57:15;9.00;;;6.40;;
15104;SDS011;7653;48.994;9.212;2023-06-10T05:59:41;6.47;;;5.90;;
15104;SDS011;7653;48.994;9.212;2023-06-10T06:02:06;7.43;;;6.13;;
15104;SDS011;7653;48.994;9.212;2023-06-10T06:04:32;7.10;;;6.00;;
15104;SDS011;7653;48.994;9.212;2023-06-10T06:06:58;6.73;;;6.07;;
15104;SDS011;7653;48.994;9.212;2023-06-10T06:09:24;7.07;;;6.30;;
15104;SDS011;7653;48.994;9.212;2023-06-10T06:11:50;6.13;;;5.53;;
15104;SDS011;7653;48.994;9.212;2023-06-10T06:14:16;6.60;;;5.97;;
15104;SDS011;7653;48.994;9.212;2023-06-10T06:16:41;6.13;;;5.63;;
15104;SDS011;7653;48.994;9.212;2023-06-10T06:19:07;6.17;;;5.50;;
15104;SDS011;7653;48.994;9.212;2023-06-10T06:21:34;6.63;;;6.03;;
15104;SDS011;7653;48.994;9.212;2023-06-10T06:24:00;5.73;;;5.23;;
15104;SDS011;7653;48.994;9.212;2023-06-10T06:26:25;5.60;;;5.10;;
15104;SDS011;7653;48.994;9.212;2023-06-10T06:28:51;5.10;;;4.70;;
15104;SDS011;7653;48.994;9.212;2023-06-10T06:31:17;5.10;;;4.60;;
15104;SDS011;7653;48.994;9.212;2023-06-10T06:33:43;6.60;;;5.27;;
15104;SDS011;7653;48.994;9.212;2023-06-10T06:36:09;5.77;;;5.17;;
15104;SDS011;7653;48.994;9.212;2023-06-10T06:38:34;5.33;;;4.83;;
15104;SDS011;7653;48.994;9.212;2023-06-10T06:41:00;5.60;;;5.10;;
15104;SDS011;7653;48.994;9.212;2023-06-10T06:43:28;5.40;;;4.90;;
15104;SDS011;7653;48.994;9.212;2023-06-10T06:45:56;5.60;;;4.90;;
15104;SDS011;7653;48.994;9.212;2023-06-10T06:48:22;5.80;;;5.30;;
15104;SDS011;7653;48.994;9.212;2023-06-10T06:50:47;4.80;;;4.40;;
15104;SDS011;7653;48.994;9.212;2023-06-10T06:53:13;5.27;;;4.77;;
15104;SDS011;7653;48.994;9.212;2023-06-10T06:55:39;5.53;;;5.03;;
15104;SDS011;7653;48.994;9.212;2023-06-10T06:58:04;5.53;;;5.03;;
15104;SDS011;7653;48.994;9.212;2023-06-10T07:00:30;5.87;;;5.10;;
15104;SDS011;7653;48.994;9.212;2023-06-10T07:02:56;6.63;;;5.90;;
15104;SDS011;7653;48.994;9.212;2023-06-10T07:05:23;5.00;;;4.60;;
15104;SDS011;7653;48.994;9.212;2023-06-10T07:07:51;5.20;;;4.70;;
15104;SDS011;7653;48.994;9.212;2023-06-10T07:10:20;6.27;;;4.90;;
15104;SDS011;7653;48.994;9.212;2023-06-10T07:12:47;5.13;;;4.70;;
15104;SDS011;7653;48.994;9.212;2023-06-10T07:15:13;5.90;;;5.40;;
15104;SDS011;7653;48.994;9.212;2023-06-10T07:17:38;5.30;;;4.80;;
15104;SDS011;7653;48.994;9.212;2023-06-10T07:20:04;5.00;;;4.60;;
15104;SDS011;7653;48.994;9.212;2023-06-10T07:22:30;5.43;;;4.93;;
15104;SDS011;7653;48.994;9.212;2023-06-10T07:24:56;5.90;;;4.57;;
15104;SDS011;7653;48.994;9.212;2023-06-10T07:27:25;5.87;;;5.37;;
15104;SDS011;7653;48.994;9.212;2023-06-10T07:29:51;6.10;;;4.60;;
15104;SDS011;7653;48.994;9.212;2023-06-10T07:32:17;6.20;;;5.10;;
15104;SDS011;7653;48.994;9.212;2023-06-10T07:34:43;5.00;;;4.60;;
15104;SDS011;7653;48.994;9.212;2023-06-10T07:37:08;5.40;;;4.90;;
15104;SDS011;7653;48.994;9.212;2023-06-10T07:39:34;8.43;;;7.50;;
15104;SDS011;7653;48.994;9.212;2023-06-10T07:42:00;7.23;;;6.60;;
15104;SDS011;7653;48.994;9.212;2023-06-10T07:44:25;5.70;;;5.13;;
15104;SDS011;7653;48.994;9.212;2023-06-10T07:46:51;5.60;;;4.97;;
15104;SDS011;7653;48.994;9.212;2023-06-10T07:49:17;6.23;;;4.47;;
15104;SDS011;7653;48.994;9.212;2023-06-10T07:51:42;5.20;;;4.80;;
15104;SDS011;7653;48.994;9.212;2023-06-10T07:54:08;6.90;;;5.50;;
15104;SDS011;7653;48.994;9.212;2023-06-10T07:56:34;6.53;;;5.93;;
15104;SDS011;7653;48.994;9.212;2023-06-10T07:58:59;5.47;;;4.97;;
15104;SDS011;7653;48.994;9.212;2023-06-10T08:01:25;6.33;;;5.20;;
15104;SDS011;7653;48.994;9.212;2023-06-10T08:03:51;5.23;;;4.73;;
15104;SDS011;7653;48.994;9.212;2023-06-10T08:06:16;6.00;;;5.20;;
15104;SDS011;7653;48.994;9.212;2023-06-10T08:08:42;5.23;;;4.73;;
15104;SDS011;7653;48.994;9.212;2023-06-10T08:11:10;4.87;;;4.57;;
15104;SDS011;7653;48.994;9.212;2023-06-10T08:13:36;5.50;;;4.90;;
15104;SDS011;7653;48.994;9.212;2023-06-10T08:16:02;5.40;;;4.93;;
15104;SDS011;7653;48.994;9.212;2023-06-10T08:18:28;4.90;;;4.50;;
15104;SDS011;7653;48.994;9.212;2023-06-10T08:20:53;5.40;;;4.90;;
15104;SDS011;7653;48.994;9.212;2023-06-10T08:23:20;7.83;;;5.20;;
15104;SDS011;7653;48.994;9.212;2023-06-10T08:25:45;5.53;;;4.80;;
15104;SDS011;7653;48.994;9.212;2023-06-10T08:28:11;5.20;;;4.70;;
15104;SDS011;7653;48.994;9.212;2023-06-10T08:30:37;5.20;;;4.80;;
15104;SDS011;7653;48.994;9.212;2023-06-10T08:33:02;5.80;;;4.77;;
15104;SDS011;7653;48.994;9.212;2023-06-10T08:35:28;5.40;;;4.90;;
15104;SDS011;7653;48.994;9.212;2023-06-10T08:37:54;5.27;;;4.77;;
15104;SDS011;7653;48.994;9.212;2023-06-10T08:40:19;5.97;;;5.10;;
15104;SDS011;7653;48.994;9.212;2023-06-10T08:42:46;5.20;;;4.70;;
15104;SDS011;7653;48.994;9.212;2023-06-10T08:45:17;5.10;;;4.70;;
15104;SDS011;7653;48.994;9.212;2023-06-10T08:47:47;5.50;;;5.00;;
15104;SDS011;7653;48.994;9.212;2023-06-10T08:50:16;5.10;;;4.60;;
15104;SDS011;7653;48.994;9.212;2023-06-10T08:52:43;5.43;;;4.77;;
15104;SDS011;7653;48.994;9.212;2023-06-10T08:55:27;4.70;;;4.23;;
15104;SDS011;7653;48.994;9.212;2023-06-10T08:58:01;5.37;;;4.80;;
15104;SDS011;7653;48.994;9.212;2023-06-10T09:00:28;5.30;;;4.90;;
15104;SDS011;7653;48.994;9.212;2023-06-10T09:02:58;5.47;;;4.90;;
15104;SDS011;7653;48.994;9.212;2023-06-10T09:05:24;5.38;;;4.47;;
15104;SDS011;7653;48.994;9.212;2023-06-10T09:07:52;5.80;;;5.30;;
15104;SDS011;7653;48.994;9.212;2023-06-10T09:10:18;5.13;;;4.55;;
15104;SDS011;7653;48.994;9.212;2023-06-10T09:12:44;5.30;;;4.80;;
15104;SDS011;7653;48.994;9.212;2023-06-10T09:15:10;4.80;;;4.40;;
15104;SDS011;7653;48.994;9.212;2023-06-10T09:17:37;5.63;;;5.00;;
15104;SDS011;7653;48.994;9.212;2023-06-10T09:20:05;5.37;;;4.87;;
15104;SDS011;7653;48.994;9.212;2023-06-10T09:22:32;5.97;;;4.85;;
15104;SDS011;7653;48.994;9.212;2023-06-10T09:25:02;4.55;;;4.15;;
15104;SDS011;7653;48.994;9.212;2023-06-10T09:27:29;5.22;;;4.72;;
15104;SDS011;7653;48.994;9.212;2023-06-10T09:29:56;5.18;;;4.40;;
15104;SDS011;7653;48.994;9.212;2023-06-10T09:32:22;6.07;;;4.50;;
15104;SDS011;7653;48.994;9.212;2023-06-10T09:34:49;4.85;;;4.30;;
15104;SDS011;7653;48.994;9.212;2023-06-10T09:37:25;5.18;;;4.68;;
15104;SDS011;7653;48.994;9.212;2023-06-10T09:40:01;4.50;;;4.10;;
15104;SDS011;7653;48.994;9.212;2023-06-10T09:42:33;4.53;;;4.10;;
15104;SDS011;7653;48.994;9.212;2023-06-10T09:45:00;5.82;;;4.28;;
15104;SDS011;7653;48.994;9.212;2023-06-10T09:47:30;6.72;;;4.30;;
15104;SDS011;7653;48.994;9.212;2023-06-10T09:49:55;6.25;;;4.20;;
15104;SDS011;7653;48.994;9.212;2023-06-10T09:52:22;4.57;;;4.18;;
15104;SDS011;7653;48.994;9.212;2023-06-10T09:54:48;4.50;;;4.03;;
15104;SDS011;7653;48.994;9.212;2023-06-10T09:57:16;3.90;;;3.50;;
15104;SDS011;7653;48.994;9.212;2023-06-10T09:59:42;4.93;;;4.03;;
15104;SDS011;7653;48.994;9.212;2023-06-10T10:02:17;4.20;;;3.90;;
15104;SDS011;7653;48.994;9.212;2023-06-10T10:04:46;4.65;;;4.18;;
15104;SDS011;7653;48.994;9.212;2023-06-10T10:07:12;4.47;;;4.10;;
15104;SDS011;7653;48.994;9.212;2023-06-10T10:09:38;4.55;;;4.22;;
15104;SDS011;7653;48.994;9.212;2023-06-10T10:12:07;4.47;;;4.07;;
15104;SDS011;7653;48.994;9.212;2023-06-10T10:14:35;4.55;;;4.10;;
15104;SDS011;7653;48.994;9.212;2023-06-10T10:17:02;5.65;;;4.38;;
15104;SDS011;7653;48.994;9.212;2023-06-10T10:19:32;4.70;;;4.28;;
15104;SDS011;7653;48.994;9.212;2023-06-10T10:22:10;5.80;;;4.30;;
15104;SDS011;7653;48.994;9.212;2023-06-10T10:24:49;4.55;;;4.15;;
15104;SDS011;7653;48.994;9.212;2023-06-10T10:27:40;5.05;;;4.07;;
15104;SDS011;7653;48.994;9.212;2023-06-10T10:30:08;4.53;;;4.13;;
15104;SDS011;7653;48.994;9.212;2023-06-10T10:32:56;4.68;;;4.25;;
15104;SDS011;7653;48.994;9.212;2023-06-10T10:35:24;4.95;;;3.88;;
15104;SDS011;7653;48.994;9.212;2023-06-10T10:37:51;4.70;;;4.30;;
15104;SDS011;7653;48.994;9.212;2023-06-10T10:40:18;5.13;;;4.10;;
15104;SDS011;7653;48.994;9.212;2023-06-10T10:42:45;4.15;;;3.80;;
15104;SDS011;7653;48.994;9.212;2023-06-10T10:45:16;3.80;;;3.50;;
15104;SDS011;7653;48.994;9.212;2023-06-10T10:47:42;3.92;;;3.63;;
15104;SDS011;7653;48.994;9.212;2023-06-10T10:50:14;9.57;;;3.63;;
15104;SDS011;7653;48.994;9.212;2023-06-10T10:53:03;4.30;;;3.67;;
15104;SDS011;7653;48.994;9.212;2023-06-10T10:55:28;3.80;;;3.50;;
15104;SDS011;7653;48.994;9.212;2023-06-10T10:57:59;5.60;;;3.83;;
15104;SDS011;7653;48.994;9.212;2023-06-10T11:00:31;4.55;;;4.15;;
15104;SDS011;7653;48.994;9.212;2023-06-10T11:03:04;4.55;;;3.53;;
15104;SDS011;7653;48.994;9.212;2023-06-10T11:05:41;4.15;;;3.80;;
15104;SDS011;7653;48.994;9.212;2023-06-10T11:08:09;4.43;;;4.00;;
15104;SDS011;7653;48.994;9.212;2023-06-10T11:10:36;3.85;;;3.53;;
15104;SDS011;7653;48.994;9.212;2023-06-10T11:13:07;4.43;;;3.47;;
15104;SDS011;7653;48.994;9.212;2023-06-10T11:15:43;3.58;;;3.28;;
15104;SDS011;7653;48.994;9.212;2023-06-10T11:23:24;4.50;;;4.03;;
15104;SDS011;7653;48.994;9.212;2023-06-10T11:31:22;4.10;;;3.70;;
15104;SDS011;7653;48.994;9.212;2023-06-10T11:33:51;4.30;;;3.90;;
15104;SDS011;7653;48.994;9.212;2023-06-10T11:36:21;4.47;;;4.07;;
15104;SDS011;7653;48.994;9.212;2023-06-10T11:38:48;4.70;;;4.13;;
15104;SDS011;7653;48.994;9.212;2023-06-10T11:41:14;4.45;;;4.05;;
15104;SDS011;7653;48.994;9.212;2023-06-10T11:43:42;4.22;;;3.83;;
15104;SDS011;7653;48.994;9.212;2023-06-10T11:46:09;5.05;;;3.60;;
15104;SDS011;7653;48.994;9.212;2023-06-10T11:48:35;3.90;;;3.58;;
15104;SDS011;7653;48.994;9.212;2023-06-10T11:51:05;4.28;;;3.65;;
15104;SDS011;7653;48.994;9.212;2023-06-10T11:53:34;4.95;;;3.67;;
15104;SDS011;7653;48.994;9.212;2023-06-10T11:56:00;6.65;;;4.05;;
15104;SDS011;7653;48.994;9.212;2023-06-10T11:58:26;4.80;;;3.88;;
15104;SDS011;7653;48.994;9.212;2023-06-10T12:00:52;4.10;;;3.30;;
15104;SDS011;7653;48.994;9.212;2023-06-10T12:03:21;4.38;;;4.00;;
15104;SDS011;7653;48.994;9.212;2023-06-10T12:06:04;4.28;;;3.40;;
15104;SDS011;7653;48.994;9.212;2023-06-10T12:08:40;4.40;;;3.72;;
15104;SDS011;7653;48.994;9.212;2023-06-10T12:11:07;3.92;;;3.38;;
15104;SDS011;7653;48.994;9.212;2023-06-10T12:13:33;4.13;;;3.58;;
15104;SDS011;7653;48.994;9.212;2023-06-10T12:16:08;3.70;;;3.13;;
15104;SDS011;7653;48.994;9.212;2023-06-10T12:18:34;3.72;;;3.28;;
15104;SDS011;7653;48.994;9.212;2023-06-10T12:21:00;4.13;;;3.55;;
15104;SDS011;7653;48.994;9.212;2023-06-10T12:23:25;7.50;;;3.20;;
15104;SDS011;7653;48.994;9.212;2023-06-10T12:25:54;3.67;;;3.25;;
15104;SDS011;7653;48.994;9.212;2023-06-10T12:28:24;3.75;;;3.45;;
15104;SDS011;7653;48.994;9.212;2023-06-10T12:30:51;3.75;;;2.90;;
15104;SDS011;7653;48.994;9.212;2023-06-10T12:33:30;3.63;;;3.33;;
15104;SDS011;7653;48.994;9.212;2023-06-10T12:35:56;4.35;;;3.40;;
15104;SDS011;7653;48.994;9.212;2023-06-10T12:38:22;3.75;;;3.45;;
15104;SDS011;7653;48.994;9.212;2023-06-10T12:41:01;3.50;;;3.20;;
15104;SDS011;7653;48.994;9.212;2023-06-10T12:43:30;3.33;;;2.63;;
15104;SDS011;7653;48.994;9.212;2023-06-10T12:45:56;3.28;;;2.92;;
15104;SDS011;7653;48.994;9.212;2023-06-10T12:48:34;2.88;;;2.60;;
15104;SDS011;7653;48.994;9.212;2023-06-10T12:51:00;3.45;;;2.60;;
15104;SDS011;7653;48.994;9.212;2023-06-10T12:53:26;2.83;;;2.63;;
15104;SDS011;7653;48.994;9.212;2023-06-10T12:55:52;2.85;;;2.53;;
15104;SDS011;7653;48.994;9.212;2023-06-10T12:58:21;2.80;;;2.50;;
15104;SDS011;7653;48.994;9.212;2023-06-10T13:00:47;3.03;;;2.80;;
15104;SDS011;7653;48.994;9.212;2023-06-10T13:03:13;3.25;;;2.95;;
15104;SDS011;7653;48.994;9.212;2023-06-10T13:05:40;2.80;;;2.60;;
15104;SDS011;7653;48.994;9.212;2023-06-10T13:08:06;2.70;;;2.50;;
15104;SDS011;7653;48.994;9.212;2023-06-10T13:10:32;2.67;;;2.28;;
15104;SDS011;7653;48.994;9.212;2023-06-10T13:13:00;4.15;;;2.45;;
15104;SDS011;7653;48.994;9.212;2023-06-10T13:15:27;2.63;;;2.42;;
15104;SDS011;7653;48.994;9.212;2023-06-10T13:17:52;2.80;;;2.60;;
15104;SDS011;7653;48.994;9.212;2023-06-10T13:20:18;3.75;;;2.58;;
15104;SDS011;7653;48.994;9.212;2023-06-10T13:22:45;2.60;;;2.40;;
15104;SDS011;7653;48.994;9.212;2023-06-10T13:25:12;3.05;;;2.70;;
15104;SDS011;7653;48.994;9.212;2023-06-10T13:27:38;2.80;;;2.60;;
15104;SDS011;7653;48.994;9.212;2023-06-10T13:30:04;2.60;;;2.40;;
15104;SDS011;7653;48.994;9.212;2023-06-10T13:32:31;2.92;;;2.72;;
15104;SDS011;7653;48.994;9.212;2023-06-10T13:34:57;2.83;;;2.63;;
15104;SDS011;7653;48.994;9.212;2023-06-10T13:37:23;3.30;;;3.00;;
15104;SDS011;7653;48.994;9.212;2023-06-10T13:39:48;4.85;;;3.00;;
15104;SDS011;7653;48.994;9.212;2023-06-10T13:42:16;3.15;;;2.95;;
15104;SDS011;7653;48.994;9.212;2023-06-10T13:44:45;2.83;;;2.63;;
15104;SDS011;7653;48.994;9.212;2023-06-10T13:47:12;2.70;;;2.50;;
15104;SDS011;7653;48.994;9.212;2023-06-10T13:49:38;3.03;;;2.65;;
15104;SDS011;7653;48.994;9.212;2023-06-10T13:52:05;4.10;;;2.83;;
15104;SDS011;7653;48.994;9.212;2023-06-10T13:54:31;3.17;;;2.90;;
15104;SDS011;7653;48.994;9.212;2023-06-10T13:56:56;3.25;;;2.95;;
15104;SDS011;7653;48.994;9.212;2023-06-10T13:59:22;2.97;;;2.78;;
15104;SDS011;7653;48.994;9.212;2023-06-10T14:01:48;2.80;;;2.60;;
15104;SDS011;7653;48.994;9.212;2023-06-10T14:04:13;3.63;;;2.90;;
15104;SDS011;7653;48.994;9.212;2023-06-10T14:06:39;4.00;;;3.15;;
15104;SDS011;7653;48.994;9.212;2023-06-10T14:09:05;2.92;;;2.70;;
15104;SDS011;7653;48.994;9.212;2023-06-10T14:11:31;3.03;;;2.80;;
15104;SDS011;7653;48.994;9.212;2023-06-10T14:13:56;3.40;;;2.83;;
15104;SDS011;7653;48.994;9.212;2023-06-10T14:16:22;3.25;;;2.95;;
15104;SDS011;7653;48.994;9.212;2023-06-10T14:18:48;3.05;;;2.85;;
15104;SDS011;7653;48.994;9.212;2023-06-10T14:21:15;2.80;;;2.50;;
15104;SDS011;7653;48.994;9.212;2023-06-10T14:23:41;3.50;;;2.67;;
15104;SDS011;7653;48.994;9.212;2023-06-10T14:26:08;2.70;;;2.50;;
15104;SDS011;7653;48.994;9.212;2023-06-10T14:28:34;2.63;;;2.42;;
15104;SDS011;7653;48.994;9.212;2023-06-10T14:31:00;3.53;;;2.70;;
15104;SDS011;7653;48.994;9.212;2023-06-10T14:33:25;3.45;;;2.90;;
15104;SDS011;7653;48.994;9.212;2023-06-10T14:35:51;3.78;;;2.78;;
15104;SDS011;7653;48.994;9.212;2023-06-10T14:38:16;2.83;;;2.60;;
15104;SDS011;7653;48.994;9.212;2023-06-10T14:40:43;2.65;;;2.45;;
15104;SDS011;7653;48.994;9.212;2023-06-10T14:43:08;2.55;;;2.40;;
15104;SDS011;7653;48.994;9.212;2023-06-10T14:45:38;2.40;;;2.20;;
15104;SDS011;7653;48.994;9.212;2023-06-10T14:48:04;2.75;;;2.53;;
15104;SDS011;7653;48.994;9.212;2023-06-10T14:50:31;3.03;;;2.60;;
15104;SDS011;7653;48.994;9.212;2023-06-10T14:52:57;2.78;;;2.50;;
15104;SDS011;7653;48.994;9.212;2023-06-10T14:55:25;3.17;;;2.88;;
15104;SDS011;7653;48.994;9.212;2023-06-10T14:57:51;2.67;;;2.47;;
15104;SDS011;7653;48.994;9.212;2023-06-10T15:00:17;2.88;;;2.55;;
15104;SDS011;7653;48.994;9.212;2023-06-10T15:02:47;2.90;;;2.50;;
15104;SDS011;7653;48.994;9.212;2023-06-10T15:05:13;3.25;;;2.58;;
15104;SDS011;7653;48.994;9.212;2023-06-10T15:07:42;2.38;;;2.28;;
15104;SDS011;7653;48.994;9.212;2023-06-10T15:10:08;2.85;;;2.65;;
15104;SDS011;7653;48.994;9.212;2023-06-10T15:12:35;2.88;;;2.67;;
15104;SDS011;7653;48.994;9.212;2023-06-10T15:15:00;3.17;;;2.75;;
15104;SDS011;7653;48.994;9.212;2023-06-10T15:17:27;2.90;;;2.30;;
15104;SDS011;7653;48.994;9.212;2023-06-10T15:19:52;3.50;;;2.70;;